sensor_id;sensor_type;location;lat;lon;timestamp;pressure;altitude;pressure_sealevel;temperature;humidity
40372;BME280;28564;53.346;-6.554;2023-11-19T00:01:00;99146.88;;;14.68;49.93
40372;BME280;28564;53.346;-6.554;2023-11-19T00:03:27;99153.38;;;14.39;49.93
40372;BME280;28564;53.346;-6.554;2023-11-19T00:05:54;99152.90;;;14.79;50.03
40372;BME280;28564;53.346;-6.554;2023-11-19T00:08:21;99135.99;;;14.42;50.14
40372;BME280;28564;53.346;-6.554;2023-11-19T00:10:48;99130.00;;;14.63;50.15
40372;BME280;28564;53.346;-6.554;2023-11-19T00:13:16;99134.07;;;14.32;50.13
40372;BME280;28564;53.346;-6.554;2023-11-19T00:15:43;99138.20;;;14.55;50.17
40372;BME280;28564;53.346;-6.554;2023-11-19T00:18:10;99138.53;;;14.55;50.13
40372;BME280;28564;53.346;-6.554;2023-11-19T00:20:37;99139.89;;;14.83;50.30
40372;BME280;28564;53.346;-6.554;2023-11-19T00:23:04;99138.30;;;14.71;50.18
40372;BME280;28564;53.346;-6.554;2023-11-19T00:25:31;99138.10;;;14.83;50.06
40372;BME280;28564;53.346;-6.554;2023-11-19T00:27:58;99156.66;;;14.89;49.70
40372;BME280;28564;53.346;-6.554;2023-11-19T00:30:25;99151.31;;;14.95;49.69
40372;BME280;28564;53.346;-6.554;2023-11-19T00:32:52;99150.95;;;14.51;49.75
40372;BME280;28564;53.346;-6.554;2023-11-19T00:35:20;99151.42;;;14.55;49.76
40372;BME280;28564;53.346;-6.554;2023-11-19T00:37:47;99152.12;;;14.59;49.79
40372;BME280;28564;53.346;-6.554;2023-11-19T00:40:14;99151.95;;;14.83;49.90
40372;BME280;28564;53.346;-6.554;2023-11-19T00:42:41;99146.86;;;14.87;49.85
40372;BME280;28564;53.346;-6.554;2023-11-19T00:45:09;99146.82;;;14.66;49.94
40372;BME280;28564;53.346;-6.554;2023-11-19T00:47:36;99140.91;;;14.89;49.95
40372;BME280;28564;53.346;-6.554;2023-11-19T00:50:04;99144.97;;;14.63;50.28
40372;BME280;28564;53.346;-6.554;2023-11-19T00:52:31;99143.39;;;14.59;50.70
40372;BME280;28564;53.346;-6.554;2023-11-19T00:54:59;99147.47;;;14.75;50.80
40372;BME280;28564;53.346;-6.554;2023-11-19T00:57:26;99140.26;;;14.95;50.72
40372;BME280;28564;53.346;-6.554;2023-11-19T00:59:53;99142.58;;;14.90;50.53
40372;BME280;28564;53.346;-6.554;2023-11-19T01:02:20;99135.02;;;14.82;50.62
40372;BME280;28564;53.346;-6.554;2023-11-19T01:04:47;99127.17;;;14.70;50.66
40372;BME280;28564;53.346;-6.554;2023-11-19T01:07:14;99119.76;;;14.65;50.60
40372;BME280;28564;53.346;-6.554;2023-11-19T01:09:42;99113.81;;;14.60;50.49
40372;BME280;28564;53.346;-6.554;2023-11-19T01:12:10;99105.98;;;14.57;50.64
40372;BME280;28564;53.346;-6.554;2023-11-19T01:14:37;99088.63;;;14.58;50.35
40372;BME280;28564;53.346;-6.554;2023-11-19T01:17:04;99091.03;;;14.28;50.17
40372;BME280;28564;53.346;-6.554;2023-11-19T01:19:31;99084.60;;;14.52;50.14
40372;BME280;28564;53.346;-6.554;2023-11-19T01:21:59;99089.60;;;14.28;50.01
40372;BME280;28564;53.346;-6.554;2023-11-19T01:24:26;99086.09;;;14.59;49.98
40372;BME280;28564;53.346;-6.554;2023-11-19T01:26:53;99081.20;;;14.63;49.96
40372;BME280;28564;53.346;-6.554;2023-11-19T01:29:20;99082.78;;;14.18;49.60
40372;BME280;28564;53.346;-6.554;2023-11-19T01:31:47;99079.50;;;14.66;49.62
40372;BME280;28564;53.346;-6.554;2023-11-19T01:34:15;99082.84;;;14.65;49.75
40372;BME280;28564;53.346;-6.554;2023-11-19T01:36:42;99084.49;;;14.68;49.81
40372;BME280;28564;53.346;-6.554;2023-11-19T01:39:09;99080.66;;;14.44;49.68
40372;BME280;28564;53.346;-6.554;2023-11-19T01:41:36;99082.67;;;14.49;49.62
40372;BME280;28564;53.346;-6.554;2023-11-19T01:44:04;99078.80;;;14.79;49.46
40372;BME280;28564;53.346;-6.554;2023-11-19T01:46:32;99084.20;;;14.33;49.39
40372;BME280;28564;53.346;-6.554;2023-11-19T01:49:00;99080.11;;;14.60;49.24
40372;BME280;28564;53.346;-6.554;2023-11-19T01:51:29;99079.62;;;14.44;49.15
40372;BME280;28564;53.346;-6.554;2023-11-19T01:53:57;99072.22;;;14.72;49.11
40372;BME280;28564;53.346;-6.554;2023-11-19T01:56:26;99070.49;;;14.57;48.92
40372;BME280;28564;53.346;-6.554;2023-11-19T01:58:54;99076.60;;;14.62;48.62
40372;BME280;28564;53.346;-6.554;2023-11-19T02:01:22;99067.14;;;14.67;48.47
40372;BME280;28564;53.346;-6.554;2023-11-19T02:03:49;99061.55;;;15.12;48.57
40372;BME280;28564;53.346;-6.554;2023-11-19T02:06:16;99067.38;;;14.60;48.55
40372;BME280;28564;53.346;-6.554;2023-11-19T02:08:43;99063.98;;;14.58;48.63
40372;BME280;28564;53.346;-6.554;2023-11-19T02:11:12;99051.20;;;14.78;48.66
40372;BME280;28564;53.346;-6.554;2023-11-19T02:13:39;99049.45;;;15.05;48.61
40372;BME280;28564;53.346;-6.554;2023-11-19T02:16:07;99055.20;;;14.80;48.64
40372;BME280;28564;53.346;-6.554;2023-11-19T02:18:40;99055.68;;;14.83;48.62
40372;BME280;28564;53.346;-6.554;2023-11-19T02:21:08;99048.99;;;14.85;48.61
40372;BME280;28564;53.346;-6.554;2023-11-19T02:23:34;99048.24;;;14.85;48.70
40372;BME280;28564;53.346;-6.554;2023-11-19T02:26:10;99051.51;;;14.63;48.68
40372;BME280;28564;53.346;-6.554;2023-11-19T02:28:39;99047.62;;;14.66;48.67
40372;BME280;28564;53.346;-6.554;2023-11-19T02:31:08;99043.93;;;15.17;48.68
40372;BME280;28564;53.346;-6.554;2023-11-19T02:33:36;99040.29;;;14.73;48.67
40372;BME280;28564;53.346;-6.554;2023-11-19T02:36:03;99039.36;;;14.79;48.48
40372;BME280;28564;53.346;-6.554;2023-11-19T02:38:30;99043.97;;;14.82;48.48
40372;BME280;28564;53.346;-6.554;2023-11-19T02:40:58;99043.54;;;14.87;48.40
40372;BME280;28564;53.346;-6.554;2023-11-19T02:43:25;99041.26;;;14.93;48.36
40372;BME280;28564;53.346;-6.554;2023-11-19T02:45:52;99043.35;;;14.69;48.33
40372;BME280;28564;53.346;-6.554;2023-11-19T02:48:19;99041.61;;;14.99;48.25
40372;BME280;28564;53.346;-6.554;2023-11-19T02:50:47;99044.45;;;15.02;48.19
40372;BME280;28564;53.346;-6.554;2023-11-19T02:53:14;99039.45;;;14.78;48.13
40372;BME280;28564;53.346;-6.554;2023-11-19T02:55:41;99041.84;;;15.06;48.20
40372;BME280;28564;53.346;-6.554;2023-11-19T02:58:08;99040.63;;;15.09;48.18
40372;BME280;28564;53.346;-6.554;2023-11-19T03:00:35;99040.92;;;15.13;48.11
40372;BME280;28564;53.346;-6.554;2023-11-19T03:03:02;99039.70;;;15.12;48.21
40372;BME280;28564;53.346;-6.554;2023-11-19T03:05:29;99037.23;;;15.14;48.24
40372;BME280;28564;53.346;-6.554;2023-11-19T03:07:57;99034.66;;;15.13;48.39
40372;BME280;28564;53.346;-6.554;2023-11-19T03:10:24;99032.32;;;15.13;48.39
40372;BME280;28564;53.346;-6.554;2023-11-19T03:12:51;99031.28;;;14.85;48.51
40372;BME280;28564;53.346;-6.554;2023-11-19T03:15:19;99024.84;;;15.10;48.60
40372;BME280;28564;53.346;-6.554;2023-11-19T03:17:46;99026.65;;;15.05;48.69
40372;BME280;28564;53.346;-6.554;2023-11-19T03:20:13;99024.29;;;15.08;48.82
40372;BME280;28564;53.346;-6.554;2023-11-19T03:22:40;99024.82;;;15.11;48.77
40372;BME280;28564;53.346;-6.554;2023-11-19T03:25:08;99023.03;;;15.09;48.79
40372;BME280;28564;53.346;-6.554;2023-11-19T03:27:35;99028.71;;;15.10;48.81
40372;BME280;28564;53.346;-6.554;2023-11-19T03:30:03;99023.62;;;15.10;48.78
40372;BME280;28564;53.346;-6.554;2023-11-19T03:32:31;99019.61;;;15.13;48.55
40372;BME280;28564;53.346;-6.554;2023-11-19T03:34:58;99018.32;;;15.15;48.47
40372;BME280;28564;53.346;-6.554;2023-11-19T03:37:26;99015.09;;;15.19;48.29
40372;BME280;28564;53.346;-6.554;2023-11-19T03:39:54;99012.18;;;15.20;48.36
40372;BME280;28564;53.346;-6.554;2023-11-19T03:42:21;99018.23;;;15.29;48.28
40372;BME280;28564;53.346;-6.554;2023-11-19T03:44:49;99005.80;;;15.36;48.10
40372;BME280;28564;53.346;-6.554;2023-11-19T03:47:16;99009.17;;;15.31;48.15
40372;BME280;28564;53.346;-6.554;2023-11-19T03:49:46;98997.52;;;15.01;48.17
40372;BME280;28564;53.346;-6.554;2023-11-19T03:52:14;99007.45;;;15.28;48.25
40372;BME280;28564;53.346;-6.554;2023-11-19T03:54:41;98999.09;;;15.28;48.20
40372;BME280;28564;53.346;-6.554;2023-11-19T03:57:08;99002.32;;;15.29;48.23
40372;BME280;28564;53.346;-6.554;2023-11-19T03:59:36;98995.36;;;15.30;48.19
40372;BME280;28564;53.346;-6.554;2023-11-19T04:02:03;98989.61;;;15.03;48.08
40372;BME280;28564;53.346;-6.554;2023-11-19T04:04:30;98994.39;;;15.28;48.17
40372;BME280;28564;53.346;-6.554;2023-11-19T04:06:57;98995.09;;;15.29;48.02
40372;BME280;28564;53.346;-6.554;2023-11-19T04:09:24;98992.98;;;15.52;48.10
40372;BME280;28564;53.346;-6.554;2023-11-19T04:11:51;98994.69;;;15.29;48.08
40372;BME280;28564;53.346;-6.554;2023-11-19T04:14:18;98986.93;;;15.30;48.14
40372;BME280;28564;53.346;-6.554;2023-11-19T04:16:45;98988.41;;;15.32;48.15
40372;BME280;28564;53.346;-6.554;2023-11-19T04:19:13;98995.13;;;15.57;48.13
40372;BME280;28564;53.346;-6.554;2023-11-19T04:21:41;98990.39;;;15.10;48.03
40372;BME280;28564;53.346;-6.554;2023-11-19T04:24:09;98987.38;;;15.39;47.97
40372;BME280;28564;53.346;-6.554;2023-11-19T04:26:36;98985.31;;;15.12;47.95
40372;BME280;28564;53.346;-6.554;2023-11-19T04:29:06;98985.98;;;15.38;48.02
40372;BME280;28564;53.346;-6.554;2023-11-19T04:31:33;98981.75;;;15.11;47.96
40372;BME280;28564;53.346;-6.554;2023-11-19T04:34:00;98993.21;;;15.38;48.02
40372;BME280;28564;53.346;-6.554;2023-11-19T04:36:27;98986.86;;;15.09;48.01
40372;BME280;28564;53.346;-6.554;2023-11-19T04:38:54;98978.17;;;15.34;48.15
40372;BME280;28564;53.346;-6.554;2023-11-19T04:41:21;98973.99;;;15.34;48.18
40372;BME280;28564;53.346;-6.554;2023-11-19T04:43:48;98978.26;;;15.31;48.24
40372;BME280;28564;53.346;-6.554;2023-11-19T04:46:16;98982.45;;;15.30;48.28
40372;BME280;28564;53.346;-6.554;2023-11-19T04:48:43;98978.47;;;15.32;48.27
40372;BME280;28564;53.346;-6.554;2023-11-19T04:51:10;98976.92;;;15.29;48.27
40372;BME280;28564;53.346;-6.554;2023-11-19T04:53:37;98982.27;;;15.27;48.39
40372;BME280;28564;53.346;-6.554;2023-11-19T04:56:08;98977.78;;;15.28;48.40
40372;BME280;28564;53.346;-6.554;2023-11-19T04:58:35;98977.39;;;15.03;48.42
40372;BME280;28564;53.346;-6.554;2023-11-19T05:01:02;98973.88;;;15.30;48.35
40372;BME280;28564;53.346;-6.554;2023-11-19T05:03:30;98974.41;;;15.33;48.34
40372;BME280;28564;53.346;-6.554;2023-11-19T05:05:57;98976.72;;;15.38;48.23
40372;BME280;28564;53.346;-6.554;2023-11-19T05:08:24;98967.11;;;15.41;48.14
40372;BME280;28564;53.346;-6.554;2023-11-19T05:10:51;98967.05;;;15.43;48.14
40372;BME280;28564;53.346;-6.554;2023-11-19T05:13:18;98963.47;;;15.15;47.98
40372;BME280;28564;53.346;-6.554;2023-11-19T05:15:46;98962.98;;;15.38;47.99
40372;BME280;28564;53.346;-6.554;2023-11-19T05:18:13;98963.52;;;15.36;47.95
40372;BME280;28564;53.346;-6.554;2023-11-19T05:20:40;98967.18;;;15.32;47.95
40372;BME280;28564;53.346;-6.554;2023-11-19T05:23:07;98962.32;;;15.27;47.97
40372;BME280;28564;53.346;-6.554;2023-11-19T05:25:34;98964.92;;;15.03;47.97
40372;BME280;28564;53.346;-6.554;2023-11-19T05:28:03;98958.01;;;15.12;47.75
40372;BME280;28564;53.346;-6.554;2023-11-19T05:30:30;98953.65;;;15.40;47.72
40372;BME280;28564;53.346;-6.554;2023-11-19T05:32:58;98955.92;;;15.36;47.95
40372;BME280;28564;53.346;-6.554;2023-11-19T05:35:25;98946.05;;;15.33;48.06
40372;BME280;28564;53.346;-6.554;2023-11-19T05:37:52;98951.65;;;15.28;48.35
40372;BME280;28564;53.346;-6.554;2023-11-19T05:40:20;98947.44;;;15.16;49.00
40372;BME280;28564;53.346;-6.554;2023-11-19T05:42:47;98944.51;;;15.00;50.51
40372;BME280;28564;53.346;-6.554;2023-11-19T05:45:14;98945.22;;;15.09;51.20
40372;BME280;28564;53.346;-6.554;2023-11-19T05:47:41;98939.03;;;14.73;51.57
40372;BME280;28564;53.346;-6.554;2023-11-19T05:50:10;98930.44;;;14.64;51.94
40372;BME280;28564;53.346;-6.554;2023-11-19T05:52:37;98932.73;;;14.57;51.93
40372;BME280;28564;53.346;-6.554;2023-11-19T05:55:05;98930.04;;;14.49;52.11
40372;BME280;28564;53.346;-6.554;2023-11-19T05:57:32;98927.53;;;14.65;52.29
40372;BME280;28564;53.346;-6.554;2023-11-19T05:59:59;98929.33;;;14.61;52.50
40372;BME280;28564;53.346;-6.554;2023-11-19T06:02:26;98932.34;;;14.56;52.63
40372;BME280;28564;53.346;-6.554;2023-11-19T06:04:54;98935.24;;;14.54;52.67
40372;BME280;28564;53.346;-6.554;2023-11-19T06:07:21;98929.81;;;14.54;52.78
40372;BME280;28564;53.346;-6.554;2023-11-19T06:09:48;98930.97;;;14.53;52.97
40372;BME280;28564;53.346;-6.554;2023-11-19T06:12:15;98926.06;;;14.78;53.06
40372;BME280;28564;53.346;-6.554;2023-11-19T06:14:42;98925.49;;;14.49;53.03
40372;BME280;28564;53.346;-6.554;2023-11-19T06:17:09;98922.35;;;14.80;52.99
40372;BME280;28564;53.346;-6.554;2023-11-19T06:19:37;98927.03;;;14.31;53.05
40372;BME280;28564;53.346;-6.554;2023-11-19T06:22:04;98927.89;;;14.58;53.06
40372;BME280;28564;53.346;-6.554;2023-11-19T06:24:31;98933.66;;;14.62;52.96
40372;BME280;28564;53.346;-6.554;2023-11-19T06:26:58;98930.29;;;14.39;52.97
40372;BME280;28564;53.346;-6.554;2023-11-19T06:29:25;98927.14;;;14.90;53.08
40372;BME280;28564;53.346;-6.554;2023-11-19T06:31:52;98923.02;;;14.64;53.00
40372;BME280;28564;53.346;-6.554;2023-11-19T06:34:19;98928.57;;;14.64;53.08
40372;BME280;28564;53.346;-6.554;2023-11-19T06:36:47;98926.77;;;14.93;53.01
40372;BME280;28564;53.346;-6.554;2023-11-19T06:39:14;98926.07;;;14.47;52.98
40372;BME280;28564;53.346;-6.554;2023-11-19T06:41:44;98923.62;;;14.46;52.84
40372;BME280;28564;53.346;-6.554;2023-11-19T06:44:12;98918.78;;;14.47;52.82
40372;BME280;28564;53.346;-6.554;2023-11-19T06:46:40;98921.02;;;14.70;52.90
40372;BME280;28564;53.346;-6.554;2023-11-19T06:49:08;98929.76;;;14.50;52.84
40372;BME280;28564;53.346;-6.554;2023-11-19T06:51:35;98922.33;;;14.69;52.93
40372;BME280;28564;53.346;-6.554;2023-11-19T06:54:07;98916.90;;;14.47;52.89
40372;BME280;28564;53.346;-6.554;2023-11-19T06:56:34;98911.61;;;14.49;52.84
40372;BME280;28564;53.346;-6.554;2023-11-19T06:59:01;98916.38;;;14.50;52.84
40372;BME280;28564;53.346;-6.554;2023-11-19T07:01:29;98915.58;;;14.51;52.77
40372;BME280;28564;53.346;-6.554;2023-11-19T07:04:01;98918.72;;;14.72;52.93
40372;BME280;28564;53.346;-6.554;2023-11-19T07:06:28;98922.14;;;14.72;52.95
40372;BME280;28564;53.346;-6.554;2023-11-19T07:08:55;98928.25;;;15.02;53.09
40372;BME280;28564;53.346;-6.554;2023-11-19T07:11:22;98922.22;;;14.53;53.16
40372;BME280;28564;53.346;-6.554;2023-11-19T07:13:49;98919.91;;;14.55;53.16
40372;BME280;28564;53.346;-6.554;2023-11-19T07:16:16;98920.82;;;14.58;53.08
40372;BME280;28564;53.346;-6.554;2023-11-19T07:18:44;98922.76;;;14.60;53.06
40372;BME280;28564;53.346;-6.554;2023-11-19T07:21:11;98913.68;;;14.85;53.22
40372;BME280;28564;53.346;-6.554;2023-11-19T07:23:38;98920.16;;;15.14;53.08
40372;BME280;28564;53.346;-6.554;2023-11-19T07:26:06;98917.29;;;14.69;53.16
40372;BME280;28564;53.346;-6.554;2023-11-19T07:28:33;98916.22;;;14.73;53.01
40372;BME280;28564;53.346;-6.554;2023-11-19T07:31:00;98916.59;;;14.72;53.10
40372;BME280;28564;53.346;-6.554;2023-11-19T07:33:27;98920.84;;;15.22;53.12
40372;BME280;28564;53.346;-6.554;2023-11-19T07:35:55;98922.37;;;14.77;53.03
40372;BME280;28564;53.346;-6.554;2023-11-19T07:38:22;98917.25;;;14.79;52.97
40372;BME280;28564;53.346;-6.554;2023-11-19T07:40:50;98913.51;;;14.82;53.05
40372;BME280;28564;53.346;-6.554;2023-11-19T07:43:17;98918.24;;;14.82;52.93
40372;BME280;28564;53.346;-6.554;2023-11-19T07:45:44;98918.29;;;15.04;53.00
40372;BME280;28564;53.346;-6.554;2023-11-19T07:48:11;98918.44;;;14.82;52.98
40372;BME280;28564;53.346;-6.554;2023-11-19T07:50:39;98922.63;;;14.85;53.20
40372;BME280;28564;53.346;-6.554;2023-11-19T07:53:06;98926.38;;;15.12;53.11
40372;BME280;28564;53.346;-6.554;2023-11-19T07:55:33;98922.27;;;14.93;53.15
40372;BME280;28564;53.346;-6.554;2023-11-19T07:58:00;98924.30;;;14.97;53.01
40372;BME280;28564;53.346;-6.554;2023-11-19T08:00:27;98928.45;;;15.01;53.05
40372;BME280;28564;53.346;-6.554;2023-11-19T08:02:55;98928.22;;;15.05;53.05
40372;BME280;28564;53.346;-6.554;2023-11-19T08:05:22;98931.75;;;15.08;53.02
40372;BME280;28564;53.346;-6.554;2023-11-19T08:07:49;98929.80;;;15.11;53.10
40372;BME280;28564;53.346;-6.554;2023-11-19T08:10:16;98934.49;;;15.15;53.04
40372;BME280;28564;53.346;-6.554;2023-11-19T08:12:43;98932.52;;;15.20;53.11
40372;BME280;28564;53.346;-6.554;2023-11-19T08:15:11;98936.55;;;15.25;53.09
40372;BME280;28564;53.346;-6.554;2023-11-19T08:17:38;98929.87;;;15.30;53.08
40372;BME280;28564;53.346;-6.554;2023-11-19T08:20:07;98931.25;;;15.37;53.00
40372;BME280;28564;53.346;-6.554;2023-11-19T08:22:34;98929.12;;;15.15;52.90
40372;BME280;28564;53.346;-6.554;2023-11-19T08:25:01;98931.68;;;15.18;52.94
40372;BME280;28564;53.346;-6.554;2023-11-19T08:27:28;98941.01;;;15.20;53.01
40372;BME280;28564;53.346;-6.554;2023-11-19T08:29:56;98942.84;;;15.21;53.12
40372;BME280;28564;53.346;-6.554;2023-11-19T08:32:23;98948.05;;;15.22;53.32
40372;BME280;28564;53.346;-6.554;2023-11-19T08:34:50;98944.16;;;15.51;53.34
40372;BME280;28564;53.346;-6.554;2023-11-19T08:37:18;98942.76;;;15.24;53.30
40372;BME280;28564;53.346;-6.554;2023-11-19T08:39:45;98953.68;;;15.53;53.38
40372;BME280;28564;53.346;-6.554;2023-11-19T08:42:12;98951.67;;;15.31;53.36
40372;BME280;28564;53.346;-6.554;2023-11-19T08:44:39;98956.53;;;15.37;53.58
40372;BME280;28564;53.346;-6.554;2023-11-19T08:47:06;98953.39;;;15.67;53.47
40372;BME280;28564;53.346;-6.554;2023-11-19T08:49:33;98955.12;;;15.66;53.56
40372;BME280;28564;53.346;-6.554;2023-11-19T08:52:01;98960.96;;;15.44;53.56
40372;BME280;28564;53.346;-6.554;2023-11-19T08:54:28;98960.54;;;15.75;53.46
40372;BME280;28564;53.346;-6.554;2023-11-19T08:56:55;98966.84;;;15.75;53.64
40372;BME280;28564;53.346;-6.554;2023-11-19T08:59:22;98966.28;;;15.52;53.86
40372;BME280;28564;53.346;-6.554;2023-11-19T09:01:49;98966.89;;;15.58;53.81
40372;BME280;28564;53.346;-6.554;2023-11-19T09:04:16;98970.48;;;15.66;53.72
40372;BME280;28564;53.346;-6.554;2023-11-19T09:06:43;98973.70;;;15.53;53.65
40372;BME280;28564;53.346;-6.554;2023-11-19T09:09:10;98978.06;;;15.62;53.69
40372;BME280;28564;53.346;-6.554;2023-11-19T09:11:37;98979.72;;;15.65;53.61
40372;BME280;28564;53.346;-6.554;2023-11-19T09:14:04;98979.98;;;15.89;53.63
40372;BME280;28564;53.346;-6.554;2023-11-19T09:16:31;98985.12;;;15.72;53.70
40372;BME280;28564;53.346;-6.554;2023-11-19T09:18:59;98984.56;;;15.78;53.66
40372;BME280;28564;53.346;-6.554;2023-11-19T09:21:27;98989.31;;;15.80;53.86
40372;BME280;28564;53.346;-6.554;2023-11-19T09:23:54;98990.94;;;16.02;53.77
40372;BME280;28564;53.346;-6.554;2023-11-19T09:26:21;98993.35;;;16.04;54.17
40372;BME280;28564;53.346;-6.554;2023-11-19T09:28:48;98996.48;;;15.90;54.29
40372;BME280;28564;53.346;-6.554;2023-11-19T09:31:15;99005.19;;;16.19;54.26
40372;BME280;28564;53.346;-6.554;2023-11-19T09:33:44;99013.04;;;16.21;54.38
40372;BME280;28564;53.346;-6.554;2023-11-19T09:36:12;99016.66;;;16.04;54.41
40372;BME280;28564;53.346;-6.554;2023-11-19T09:38:40;99021.47;;;16.02;54.62
40372;BME280;28564;53.346;-6.554;2023-11-19T09:41:07;99022.54;;;16.02;54.80
40372;BME280;28564;53.346;-6.554;2023-11-19T09:43:34;99033.43;;;16.01;54.74
40372;BME280;28564;53.346;-6.554;2023-11-19T09:46:06;99039.26;;;15.97;55.08
40372;BME280;28564;53.346;-6.554;2023-11-19T09:48:35;99037.67;;;16.22;55.10
40372;BME280;28564;53.346;-6.554;2023-11-19T09:51:04;99042.40;;;16.27;54.95
40372;BME280;28564;53.346;-6.554;2023-11-19T09:53:32;99047.58;;;16.27;54.91
40372;BME280;28564;53.346;-6.554;2023-11-19T09:56:00;99053.42;;;15.98;55.26
40372;BME280;28564;53.346;-6.554;2023-11-19T09:58:29;99052.68;;;15.90;55.30
40372;BME280;28564;53.346;-6.554;2023-11-19T10:03:55;99061.76;;;15.84;54.47
40372;BME280;28564;53.346;-6.554;2023-11-19T10:06:23;99062.42;;;16.27;54.62
40372;BME280;28564;53.346;-6.554;2023-11-19T10:08:52;99072.74;;;16.18;54.81
40372;BME280;28564;53.346;-6.554;2023-11-19T10:11:18;99070.74;;;16.16;54.73
40372;BME280;28564;53.346;-6.554;2023-11-19T10:13:46;99069.89;;;16.06;54.77
40372;BME280;28564;53.346;-6.554;2023-11-19T10:16:13;99081.98;;;16.01;54.84
40372;BME280;28564;53.346;-6.554;2023-11-19T10:18:45;99081.44;;;16.00;55.37
40372;BME280;28564;53.346;-6.554;2023-11-19T10:21:12;99083.78;;;15.81;55.08
40372;BME280;28564;53.346;-6.554;2023-11-19T10:23:56;99091.20;;;16.24;54.98
40372;BME280;28564;53.346;-6.554;2023-11-19T10:26:24;99095.75;;;15.98;55.05
40372;BME280;28564;53.346;-6.554;2023-11-19T10:28:51;99101.25;;;15.98;54.98
40372;BME280;28564;53.346;-6.554;2023-11-19T10:31:19;99104.59;;;16.17;55.16
40372;BME280;28564;53.346;-6.554;2023-11-19T10:33:47;99127.55;;;16.18;55.21
40372;BME280;28564;53.346;-6.554;2023-11-19T10:36:14;99130.96;;;16.02;55.04
40372;BME280;28564;53.346;-6.554;2023-11-19T10:38:52;99129.10;;;16.24;55.03
40372;BME280;28564;53.346;-6.554;2023-11-19T10:41:27;99128.92;;;16.49;55.23
40372;BME280;28564;53.346;-6.554;2023-11-19T10:43:54;99150.03;;;16.51;55.28
40372;BME280;28564;53.346;-6.554;2023-11-19T10:46:21;99147.31;;;16.03;55.39
40372;BME280;28564;53.346;-6.554;2023-11-19T10:48:48;99149.04;;;16.25;55.42
40372;BME280;28564;53.346;-6.554;2023-11-19T10:51:19;99145.45;;;16.56;55.25
40372;BME280;28564;53.346;-6.554;2023-11-19T10:53:49;99154.41;;;16.28;55.31
40372;BME280;28564;53.346;-6.554;2023-11-19T10:56:17;99159.70;;;16.10;55.25
40372;BME280;28564;53.346;-6.554;2023-11-19T10:58:49;99162.71;;;16.33;55.48
40372;BME280;28564;53.346;-6.554;2023-11-19T11:01:24;99168.11;;;16.40;55.36
40372;BME280;28564;53.346;-6.554;2023-11-19T11:03:54;99173.63;;;16.26;55.43
40372;BME280;28564;53.346;-6.554;2023-11-19T11:06:22;99166.40;;;16.35;54.91
40372;BME280;28564;53.346;-6.554;2023-11-19T11:08:51;99178.19;;;16.37;54.80
40372;BME280;28564;53.346;-6.554;2023-11-19T11:11:18;99184.67;;;16.28;54.84
40372;BME280;28564;53.346;-6.554;2023-11-19T11:13:47;99184.01;;;16.43;54.90
40372;BME280;28564;53.346;-6.554;2023-11-19T11:16:18;99188.48;;;16.18;55.06
40372;BME280;28564;53.346;-6.554;2023-11-19T11:18:46;99198.10;;;16.36;55.05
40372;BME280;28564;53.346;-6.554;2023-11-19T11:21:15;99190.94;;;16.11;54.91
40372;BME280;28564;53.346;-6.554;2023-11-19T11:24:29;99195.82;;;16.35;54.71
40372;BME280;28564;53.346;-6.554;2023-11-19T11:27:16;99216.93;;;16.17;54.49
40372;BME280;28564;53.346;-6.554;2023-11-19T11:29:57;99202.62;;;16.14;54.23
40372;BME280;28564;53.346;-6.554;2023-11-19T11:32:34;99223.92;;;16.11;54.26
40372;BME280;28564;53.346;-6.554;2023-11-19T11:35:18;99225.61;;;16.28;54.41
40372;BME280;28564;53.346;-6.554;2023-11-19T11:37:55;99220.44;;;16.10;54.63
40372;BME280;28564;53.346;-6.554;2023-11-19T11:40:27;99221.17;;;16.16;54.62
40372;BME280;28564;53.346;-6.554;2023-11-19T11:42:54;99231.10;;;16.32;54.46
40372;BME280;28564;53.346;-6.554;2023-11-19T11:45:35;99232.90;;;16.23;54.22
40372;BME280;28564;53.346;-6.554;2023-11-19T11:48:08;99238.66;;;16.48;54.02
40372;BME280;28564;53.346;-6.554;2023-11-19T11:50:37;99240.76;;;16.40;54.14
40372;BME280;28564;53.346;-6.554;2023-11-19T11:53:14;99243.38;;;16.36;54.24
40372;BME280;28564;53.346;-6.554;2023-11-19T11:55:54;99248.35;;;16.35;53.99
40372;BME280;28564;53.346;-6.554;2023-11-19T11:58:26;99249.39;;;16.33;54.08
40372;BME280;28564;53.346;-6.554;2023-11-19T12:00:54;99247.77;;;16.31;54.04
40372;BME280;28564;53.346;-6.554;2023-11-19T12:03:21;99245.12;;;16.31;53.92
40372;BME280;28564;53.346;-6.554;2023-11-19T12:05:49;99250.06;;;16.27;53.93
40372;BME280;28564;53.346;-6.554;2023-11-19T12:08:20;99250.15;;;16.19;54.04
40372;BME280;28564;53.346;-6.554;2023-11-19T12:10:57;99266.32;;;16.13;54.31
40372;BME280;28564;53.346;-6.554;2023-11-19T12:13:52;99273.45;;;16.29;54.20
40372;BME280;28564;53.346;-6.554;2023-11-19T12:16:20;99281.79;;;16.02;54.41
40372;BME280;28564;53.346;-6.554;2023-11-19T12:18:48;99279.82;;;15.99;54.51
40372;BME280;28564;53.346;-6.554;2023-11-19T12:21:28;99281.58;;;15.97;54.07
40372;BME280;28564;53.346;-6.554;2023-11-19T12:23:58;99289.52;;;15.91;54.09
40372;BME280;28564;53.346;-6.554;2023-11-19T12:26:40;99286.03;;;16.10;54.16
40372;BME280;28564;53.346;-6.554;2023-11-19T12:29:08;99292.96;;;16.11;54.25
40372;BME280;28564;53.346;-6.554;2023-11-19T12:31:35;99303.96;;;15.86;54.40
40372;BME280;28564;53.346;-6.554;2023-11-19T12:34:09;99300.17;;;16.28;54.26
40372;BME280;28564;53.346;-6.554;2023-11-19T12:36:38;99306.17;;;16.27;54.40
40372;BME280;28564;53.346;-6.554;2023-11-19T12:39:07;99305.78;;;16.02;54.11
40372;BME280;28564;53.346;-6.554;2023-11-19T12:41:49;99315.90;;;16.22;54.33
40372;BME280;28564;53.346;-6.554;2023-11-19T12:44:16;99322.81;;;16.13;54.23
40372;BME280;28564;53.346;-6.554;2023-11-19T12:46:44;99327.04;;;15.86;54.46
40372;BME280;28564;53.346;-6.554;2023-11-19T12:49:11;99322.19;;;15.88;54.58
40372;BME280;28564;53.346;-6.554;2023-11-19T12:51:38;99343.16;;;15.97;54.53
40372;BME280;28564;53.346;-6.554;2023-11-19T12:54:06;99345.69;;;15.98;54.48
40372;BME280;28564;53.346;-6.554;2023-11-19T12:56:33;99344.23;;;15.97;54.38
40372;BME280;28564;53.346;-6.554;2023-11-19T12:59:10;99353.19;;;15.86;54.58